TAP088 SBGR-LPPT
Flight info
| Callsign | TAP088 |
|---|---|
| Flight time | N/A |
| Altitude | 35000 |
| Route | NUXEL UZ23 ILPIR UZ72 EDNES UN866 DORMU/N0474F370 UN866 DEKON/N0466F380 UN866 AMDOL/N0458F390 UN866 TENPA N866 GOMER/N0454F400 N866 KONBA UN866 BEXAL DCT LUVUP |
| Aircraft | A339/H-SADE1E2E3GHIJ3J5M1P2RWXY/LB2D1 |
Departure
| Time | N/A |
|---|---|
| Airport | São Paulo/Guarulhos–Governor André Franco Montoro International Airport (SBGR) |
Arrival
| Time | 2026-05-04 17:29 |
|---|---|
| Airport | Lisbon Humberto Delgado Airport (LPPT) |
| Time | Latitude | Longitude | Altitude | Speed | Heading |
|---|---|---|---|---|---|
| 2026-05-04 17:04 | 36.84024 | -10.81899 | 37805 ft | 493 kts | 26° |
| 2026-05-04 17:04 | 36.89928 | -10.77590 | 36561 ft | 494 kts | 26° |
| 2026-05-04 17:05 | 36.95872 | -10.73248 | 34947 ft | 500 kts | 26° |
| 2026-05-04 17:05 | 37.01917 | -10.68822 | 33040 ft | 511 kts | 26° |
| 2026-05-04 17:06 | 37.08086 | -10.64296 | 31165 ft | 522 kts | 26° |
| 2026-05-04 17:06 | 37.11242 | -10.61973 | 30432 ft | 521 kts | 27° |
| 2026-05-04 17:07 | 37.17418 | -10.57418 | 29449 ft | 511 kts | 27° |
| 2026-05-04 17:07 | 37.19461 | -10.55908 | 29125 ft | 507 kts | 27° |
| 2026-05-04 17:07 | 37.23481 | -10.52941 | 28488 ft | 501 kts | 27° |
| 2026-05-04 17:07 | 37.26461 | -10.50742 | 28018 ft | 497 kts | 27° |
| 2026-05-04 17:08 | 37.29418 | -10.48556 | 27529 ft | 492 kts | 27° |
| 2026-05-04 17:08 | 37.35257 | -10.44231 | 26578 ft | 484 kts | 27° |
| 2026-05-04 17:08 | 37.38130 | -10.42100 | 26124 ft | 480 kts | 28° |
| 2026-05-04 17:09 | 37.40983 | -10.39983 | 25654 ft | 475 kts | 28° |
| 2026-05-04 17:09 | 37.43822 | -10.37875 | 25196 ft | 471 kts | 28° |
| 2026-05-04 17:09 | 37.46638 | -10.35783 | 24730 ft | 467 kts | 28° |
| 2026-05-04 17:10 | 37.52177 | -10.31662 | 23768 ft | 459 kts | 29° |
| 2026-05-04 17:10 | 37.60309 | -10.25600 | 22386 ft | 446 kts | 30° |
| 2026-05-04 17:11 | 37.62955 | -10.23622 | 22023 ft | 440 kts | 30° |
| 2026-05-04 17:11 | 37.65564 | -10.21670 | 21668 ft | 434 kts | 30° |
| 2026-05-04 17:11 | 37.70650 | -10.17772 | 21254 ft | 416 kts | 33° |
| 2026-05-04 17:12 | 37.72906 | -10.15611 | 21174 ft | 405 kts | 39° |
| 2026-05-04 17:12 | 37.76965 | -10.10739 | 20410 ft | 400 kts | 44° |
| 2026-05-04 17:13 | 37.82749 | -10.03430 | 19426 ft | 388 kts | 44° |
| 2026-05-04 17:14 | 37.88409 | -9.96320 | 18513 ft | 376 kts | 44° |
| 2026-05-04 17:14 | 37.90250 | -9.94009 | 18217 ft | 373 kts | 44° |
| 2026-05-04 17:14 | 37.93897 | -9.89426 | 17647 ft | 366 kts | 44° |
| 2026-05-04 17:15 | 37.95672 | -9.87191 | 17609 ft | 354 kts | 44° |
| 2026-05-04 17:15 | 37.99012 | -9.82892 | 17579 ft | 330 kts | 50° |
| 2026-05-04 17:16 | 38.01087 | -9.77841 | 17204 ft | 328 kts | 72° |
| 2026-05-04 17:16 | 38.03098 | -9.69591 | 16280 ft | 326 kts | 73° |
| 2026-05-04 17:17 | 38.03772 | -9.66845 | 15996 ft | 325 kts | 72° |
| 2026-05-04 17:17 | 38.07555 | -9.60163 | 14691 ft | 329 kts | 24° |
| 2026-05-04 17:18 | 38.09631 | -9.58906 | 14390 ft | 327 kts | 22° |
| 2026-05-04 17:18 | 38.13646 | -9.56405 | 13319 ft | 322 kts | 24° |
| 2026-05-04 17:19 | 38.17549 | -9.53745 | 12123 ft | 317 kts | 25° |
| 2026-05-04 17:19 | 38.21361 | -9.51069 | 11059 ft | 308 kts | 27° |
| 2026-05-04 17:20 | 38.25126 | -9.48369 | 10911 ft | 312 kts | 27° |
| 2026-05-04 17:20 | 38.28875 | -9.45661 | 10873 ft | 309 kts | 27° |
| 2026-05-04 17:20 | 38.30735 | -9.44328 | 10416 ft | 306 kts | 27° |
| 2026-05-04 17:21 | 38.34406 | -9.41681 | 9281 ft | 303 kts | 28° |
| 2026-05-04 17:21 | 38.38034 | -9.39051 | 8230 ft | 296 kts | 29° |
| 2026-05-04 17:22 | 38.39792 | -9.37776 | 7716 ft | 293 kts | 29° |
| 2026-05-04 17:22 | 38.41550 | -9.36501 | 7202 ft | 290 kts | 29° |
| 2026-05-04 17:23 | 38.46724 | -9.32760 | 5723 ft | 280 kts | 30° |
| 2026-05-04 17:23 | 38.48415 | -9.31525 | 5234 ft | 277 kts | 30° |
| 2026-05-04 17:23 | 38.51568 | -9.28890 | 4304 ft | 270 kts | 40° |
| 2026-05-04 17:24 | 38.52987 | -9.27359 | 3972 ft | 260 kts | 35° |
| 2026-05-04 17:24 | 38.57389 | -9.24657 | 3936 ft | 214 kts | 22° |
| 2026-05-04 17:25 | 38.58760 | -9.23952 | 3779 ft | 213 kts | 22° |
| 2026-05-04 17:25 | 38.61528 | -9.22494 | 3265 ft | 216 kts | 22° |
| 2026-05-04 17:26 | 38.64292 | -9.21011 | 2745 ft | 215 kts | 22° |
| 2026-05-04 17:26 | 38.68176 | -9.18931 | 1988 ft | 189 kts | 22° |
| 2026-05-04 17:27 | 38.70505 | -9.17674 | 1550 ft | 173 kts | 22° |
| 2026-05-04 17:27 | 38.72615 | -9.16550 | 1152 ft | 156 kts | 21° |
| 2026-05-04 17:28 | 38.74541 | -9.15519 | 782 ft | 148 kts | 22° |
| 2026-05-04 17:29 | 38.77316 | -9.14026 | 353 ft | 126 kts | 21° |
| 2026-05-04 17:29 | 38.78301 | -9.13448 | 357 ft | 7 kts | 43° |
| 2026-05-04 17:30 | 38.78307 | -9.13270 | 349 ft | 13 kts | 197° |
| 2026-05-04 17:31 | 38.78101 | -9.13380 | 348 ft | 19 kts | 203° |
| 2026-05-04 17:31 | 38.77624 | -9.13321 | 332 ft | 26 kts | 177° |
| 2026-05-04 17:32 | 38.77413 | -9.13270 | 323 ft | 4 kts | 139° |
| 2026-05-04 17:33 | 38.77427 | -9.13149 | 322 ft | 0 kts | 78° |